createdAt,value
2022-11-27T00:01:30.022Z,96656.38
2022-11-27T00:03:57.235Z,96657.41
2022-11-27T00:06:26.763Z,96655.19
2022-11-27T00:08:56.289Z,96653.59
2022-11-27T00:11:24.847Z,96656.25
2022-11-27T00:13:52.121Z,96667.78
2022-11-27T00:16:21.498Z,96659.97
2022-11-27T00:18:49.169Z,96644.94
2022-11-27T00:21:20.179Z,96656.50
2022-11-27T00:23:47.358Z,96654.84
2022-11-27T00:26:14.861Z,96656.72
2022-11-27T00:28:42.422Z,96658.56
2022-11-27T00:31:16.755Z,96650.75
2022-11-27T00:33:44.413Z,96658.56
2022-11-27T00:36:12.622Z,96661.25
2022-11-27T00:38:39.994Z,96652.41
2022-11-27T00:41:14.664Z,96650.75
2022-11-27T00:43:45.557Z,96649.72
2022-11-27T00:46:14.355Z,96649.72
2022-11-27T00:48:42.520Z,96646.00
2022-11-27T00:51:10.910Z,96636.22
2022-11-27T00:53:38.282Z,96622.72
2022-11-27T00:56:05.584Z,96621.69
2022-11-27T00:58:32.682Z,96621.69
2022-11-27T01:01:02.071Z,96604.78
2022-11-27T01:03:30.527Z,96615.50
2022-11-27T01:06:01.964Z,96610.16
2022-11-27T01:08:29.070Z,96611.00
2022-11-27T01:10:58.142Z,96605.63
2022-11-27T01:13:27.232Z,96604.78
2022-11-27T01:16:22.344Z,96599.44
2022-11-27T01:18:51.278Z,96603.75
2022-11-27T01:21:21.385Z,96601.09
2022-11-27T01:23:49.864Z,96602.72
2022-11-27T01:26:18.167Z,96600.06
2022-11-27T01:28:46.028Z,96604.34
2022-11-27T01:31:20.391Z,96602.72
2022-11-27T01:33:48.122Z,96600.06
2022-11-27T01:36:16.242Z,96595.72
2022-11-27T01:38:43.503Z,96588.72
2022-11-27T01:41:16.096Z,96592.47
2022-11-27T01:43:58.013Z,96578.50
2022-11-27T01:46:31.230Z,96585.94
2022-11-27T01:49:10.450Z,96580.00
2022-11-27T01:51:52.931Z,96589.09
2022-11-27T01:54:24.210Z,96582.34
2022-11-27T01:56:56.162Z,96596.75
2022-11-27T01:59:24.113Z,96595.97
2022-11-27T02:01:51.368Z,96594.66
2022-11-27T02:04:19.336Z,96595.00
2022-11-27T02:06:46.921Z,96595.22
2022-11-27T02:09:14.157Z,96584.75
2022-11-27T02:11:53.728Z,96592.22
2022-11-27T02:14:48.301Z,96585.44
2022-11-27T02:17:22.374Z,96584.28
2022-11-27T02:20:28.447Z,96577.53
2022-11-27T02:23:09.439Z,96570.75
2022-11-27T02:26:01.297Z,96565.28
2022-11-27T02:28:50.257Z,96564.72
2022-11-27T02:31:25.621Z,96567.38
2022-11-27T02:33:56.200Z,96558.19
2022-11-27T02:36:29.561Z,96568.88
2022-11-27T02:39:07.768Z,96549.81
2022-11-27T02:41:45.085Z,96543.88
2022-11-27T02:44:13.868Z,96546.78
2022-11-27T02:46:42.150Z,96549.69
2022-11-27T02:49:14.847Z,96550.94
2022-11-27T02:51:46.141Z,96545.81
2022-11-27T02:54:18.277Z,96540.69
2022-11-27T02:56:46.953Z,96526.75
2022-11-27T02:59:16.661Z,96515.47
2022-11-27T03:01:50.459Z,96512.19
2022-11-27T03:04:24.793Z,96514.88
2022-11-27T03:06:56.748Z,96507.31
2022-11-27T03:09:36.765Z,96505.09
2022-11-27T03:12:07.337Z,96500.56
2022-11-27T03:14:36.434Z,96499.28
2022-11-27T03:17:20.096Z,96492.09
2022-11-27T03:19:57.406Z,96488.13
2022-11-27T03:22:24.632Z,96487.66
2022-11-27T03:24:53.010Z,96487.09
2022-11-27T03:27:26.688Z,96491.31
2022-11-27T03:30:00.523Z,96487.94
2022-11-27T03:32:28.861Z,96478.41
2022-11-27T03:34:56.982Z,96483.28
2022-11-27T03:37:24.213Z,96481.91
2022-11-27T03:39:51.400Z,96484.47
2022-11-27T03:42:27.603Z,96476.22
2022-11-27T03:45:03.936Z,96478.66
2022-11-27T03:47:53.428Z,96470.41
2022-11-27T03:50:45.260Z,96455.16
2022-11-27T03:53:33.976Z,96462.13
2022-11-27T03:56:18.603Z,96460.28
2022-11-27T03:58:55.377Z,96459.22
2022-11-27T04:01:26.099Z,96462.72
2022-11-27T04:03:53.452Z,96461.69
2022-11-27T04:06:20.778Z,96465.97
2022-11-27T04:08:48.187Z,96456.91
2022-11-27T04:11:15.526Z,96464.94
2022-11-27T04:13:42.670Z,96467.38
2022-11-27T04:16:09.900Z,96473.53
2022-11-27T04:18:37.444Z,96476.19
2022-11-27T04:21:04.681Z,96475.97
2022-11-27T04:23:31.857Z,96474.13
2022-11-27T04:25:58.873Z,96475.16
2022-11-27T04:28:25.933Z,96465.25
2022-11-27T04:30:53.940Z,96465.84
2022-11-27T04:33:21.307Z,96461.44
2022-11-27T04:35:48.934Z,96462.34
2022-11-27T04:38:16.001Z,96466.91
2022-11-27T04:40:43.660Z,96473.06
2022-11-27T04:43:10.748Z,96470.63
2022-11-27T04:45:37.817Z,96468.16
2022-11-27T04:48:05.425Z,96464.69
2022-11-27T04:50:32.597Z,96459.56
2022-11-27T04:52:59.742Z,96455.03
2022-11-27T04:55:26.821Z,96458.78
2022-11-27T04:57:54.090Z,96463.28
2022-11-27T05:00:21.352Z,96468.63
2022-11-27T05:02:48.516Z,96457.94
2022-11-27T05:05:15.699Z,96451.56
2022-11-27T05:07:43.003Z,96452.34
2022-11-27T05:10:10.708Z,96454.22
2022-11-27T05:12:37.833Z,96455.25
2022-11-27T05:15:05.401Z,96449.69
2022-11-27T05:17:32.457Z,96448.63
2022-11-27T05:19:59.645Z,96450.50
2022-11-27T05:22:26.759Z,96455.88
2022-11-27T05:24:53.783Z,96455.88
2022-11-27T05:27:20.964Z,96454.00
2022-11-27T05:29:47.968Z,96442.72
2022-11-27T05:32:15.078Z,96450.75
2022-11-27T05:34:42.356Z,96454.22
2022-11-27T05:37:11.246Z,96458.78
2022-11-27T05:39:39.917Z,96451.78
2022-11-27T05:42:07.165Z,96452.59
2022-11-27T05:44:34.173Z,96447.47
2022-11-27T05:47:01.374Z,96454.69
2022-11-27T05:49:28.522Z,96446.66
2022-11-27T05:51:55.586Z,96454.69
2022-11-27T05:54:22.807Z,96454.69
2022-11-27T05:56:50.134Z,96453.03
2022-11-27T05:59:17.263Z,96438.06
2022-11-27T06:01:44.572Z,96432.47
2022-11-27T06:04:11.717Z,96430.84
2022-11-27T06:06:38.853Z,96425.50
2022-11-27T06:09:12.168Z,96428.41
2022-11-27T06:11:39.781Z,96423.03
2022-11-27T06:14:10.252Z,96425.16
2022-11-27T06:16:38.235Z,96429.44
2022-11-27T06:19:05.414Z,96429.44
2022-11-27T06:21:32.452Z,96418.97
2022-11-27T06:23:59.637Z,96417.34
2022-11-27T06:26:30.476Z,96422.72
2022-11-27T06:28:59.529Z,96425.16
2022-11-27T06:31:29.598Z,96431.53
2022-11-27T06:33:57.206Z,96429.91
2022-11-27T06:36:28.410Z,96428.28
2022-11-27T06:38:55.644Z,96436.31
2022-11-27T06:41:24.069Z,96439.22
2022-11-27T06:43:51.324Z,96432.00
2022-11-27T06:46:21.251Z,96438.41
2022-11-27T06:48:50.255Z,96433.63
2022-11-27T06:51:20.814Z,96433.06
2022-11-27T06:53:48.456Z,96422.38
2022-11-27T06:56:17.934Z,96436.53
2022-11-27T06:58:45.735Z,96433.06
2022-11-27T07:01:15.349Z,96434.91
2022-11-27T07:03:42.900Z,96428.75
2022-11-27T07:06:13.451Z,96438.41
2022-11-27T07:08:40.784Z,96442.47
2022-11-27T07:11:13.870Z,96441.66
2022-11-27T07:13:41.330Z,96442.25
2022-11-27T07:16:10.449Z,96429.66
2022-11-27T07:18:45.121Z,96433.75
2022-11-27T07:21:12.668Z,96436.19
2022-11-27T07:23:39.741Z,96434.31
2022-11-27T07:26:08.513Z,96438.63
2022-11-27T07:28:35.838Z,96433.06
2022-11-27T07:31:03.384Z,96434.69
2022-11-27T07:33:31.062Z,96429.09
2022-11-27T07:36:08.331Z,96426.19
2022-11-27T07:38:35.490Z,96431.88
2022-11-27T07:41:04.233Z,96434.34
2022-11-27T07:43:32.897Z,96425.00
2022-11-27T07:46:04.747Z,96427.44
2022-11-27T07:48:32.192Z,96411.75
2022-11-27T07:50:59.625Z,96401.63
2022-11-27T07:53:26.853Z,96404.88
2022-11-27T07:55:54.067Z,96411.63
2022-11-27T07:58:21.218Z,96414.66
2022-11-27T08:00:48.269Z,96408.81
2022-11-27T08:03:15.471Z,96419.06
2022-11-27T08:05:42.725Z,96419.63
2022-11-27T08:08:09.885Z,96408.69
2022-11-27T08:10:37.734Z,96405.78
2022-11-27T08:13:06.329Z,96406.09
2022-11-27T08:15:33.907Z,96404.84
2022-11-27T08:18:00.939Z,96404.38
2022-11-27T08:20:28.557Z,96399.34
2022-11-27T08:23:01.044Z,96395.38
2022-11-27T08:25:29.910Z,96396.53
2022-11-27T08:27:57.026Z,96393.38
2022-11-27T08:30:24.668Z,96388.38
2022-11-27T08:32:51.906Z,96376.13
2022-11-27T08:35:19.115Z,96377.50
2022-11-27T08:37:46.590Z,96374.94
2022-11-27T08:40:14.076Z,96370.13
2022-11-27T08:42:41.150Z,96371.28
2022-11-27T08:45:08.801Z,96364.66
2022-11-27T08:47:36.117Z,96380.00
2022-11-27T08:50:03.465Z,96375.53
2022-11-27T08:52:31.781Z,96374.03
2022-11-27T08:55:01.887Z,96377.59
2022-11-27T08:57:29.054Z,96368.03
2022-11-27T08:59:56.091Z,96363.53
2022-11-27T09:02:23.256Z,96369.81
2022-11-27T09:04:50.453Z,96368.28
2022-11-27T09:07:17.493Z,96362.19
2022-11-27T09:09:44.878Z,96360.88
2022-11-27T09:12:12.361Z,96364.47
2022-11-27T09:14:39.996Z,96359.44
2022-11-27T09:17:07.362Z,96359.44
2022-11-27T09:19:34.486Z,96358.94
2022-11-27T09:22:01.643Z,96358.78
2022-11-27T09:24:28.854Z,96353.50
2022-11-27T09:26:55.917Z,96354.16
2022-11-27T09:29:23.846Z,96350.50
2022-11-27T09:31:51.153Z,96351.59
2022-11-27T09:34:18.226Z,96352.75
2022-11-27T09:36:45.293Z,96347.69
2022-11-27T09:39:12.613Z,96349.66
2022-11-27T09:41:47.051Z,96351.59
2022-11-27T09:44:30.692Z,96345.47
2022-11-27T09:47:18.011Z,96352.22
2022-11-27T09:49:58.043Z,96334.31
2022-11-27T09:52:42.920Z,96331.44
2022-11-27T09:55:31.387Z,96321.84
2022-11-27T09:58:01.374Z,96321.91
2022-11-27T10:00:28.641Z,96316.84
2022-11-27T10:02:55.952Z,96309.66
2022-11-27T10:05:37.683Z,96307.59
2022-11-27T10:08:24.525Z,96302.31
2022-11-27T10:11:16.624Z,96308.78
2022-11-27T10:14:00.241Z,96286.78
2022-11-27T10:16:42.902Z,96286.03
2022-11-27T10:19:29.731Z,96281.22
2022-11-27T10:22:09.499Z,96276.16
2022-11-27T10:24:46.173Z,96268.94
2022-11-27T10:27:52.296Z,96264.19
2022-11-27T10:30:21.425Z,96252.16
2022-11-27T10:32:55.721Z,96253.03
2022-11-27T10:35:32.584Z,96248.50
2022-11-27T10:38:17.852Z,96235.63
2022-11-27T10:41:00.116Z,96241.84
2022-11-27T10:43:27.207Z,96234.09
2022-11-27T10:46:02.925Z,96232.19
2022-11-27T10:48:30.015Z,96235.25
2022-11-27T10:50:57.135Z,96238.22
2022-11-27T10:53:27.531Z,96225.28
2022-11-27T10:56:12.886Z,96230.72
2022-11-27T10:58:50.449Z,96218.66
2022-11-27T11:01:20.715Z,96219.22
2022-11-27T11:03:47.933Z,96217.66
2022-11-27T11:06:24.667Z,96210.94
2022-11-27T11:09:04.887Z,96214.72
2022-11-27T11:11:32.199Z,96205.88
2022-11-27T11:13:59.559Z,96205.34
2022-11-27T11:16:34.486Z,96210.22
2022-11-27T11:19:02.259Z,96214.03
2022-11-27T11:21:33.451Z,96220.47
2022-11-27T11:24:03.870Z,96226.16
2022-11-27T11:26:39.099Z,96226.44
2022-11-27T11:29:32.662Z,96227.00
2022-11-27T11:32:10.740Z,96222.97
2022-11-27T11:34:43.151Z,96216.78
2022-11-27T11:37:26.703Z,96215.72
2022-11-27T11:40:00.370Z,96211.44
2022-11-27T11:42:30.525Z,96200.94
2022-11-27T11:45:05.447Z,96197.75
2022-11-27T11:47:32.882Z,96187.00
2022-11-27T11:50:01.026Z,96189.72
2022-11-27T11:52:33.279Z,96181.34
2022-11-27T11:55:35.557Z,96174.66
2022-11-27T11:58:02.683Z,96180.31
2022-11-27T12:01:33.436Z,96183.00
2022-11-27T12:04:42.227Z,96198.66
2022-11-27T12:07:34.615Z,96199.22
2022-11-27T12:10:30.930Z,96195.44
2022-11-27T12:13:19.243Z,96195.16
2022-11-27T12:15:52.264Z,96191.16
2022-11-27T12:18:28.818Z,96193.03
2022-11-27T12:21:33.450Z,96192.78
2022-11-27T12:24:36.976Z,96177.41
2022-11-27T12:27:48.702Z,96170.69
2022-11-27T12:30:18.652Z,96180.69
2022-11-27T12:33:20.377Z,96175.81
2022-11-27T12:35:57.233Z,96162.09
2022-11-27T12:38:48.778Z,96159.41
2022-11-27T12:41:38.760Z,96164.25
2022-11-27T12:44:17.809Z,96156.69
2022-11-27T12:47:00.560Z,96148.63
2022-11-27T12:49:40.864Z,96148.88
2022-11-27T12:52:21.337Z,96144.56
2022-11-27T12:55:22.025Z,96144.56
2022-11-27T12:57:53.769Z,96140.00
2022-11-27T13:00:24.709Z,96141.34
2022-11-27T13:03:10.259Z,96138.91
2022-11-27T13:05:44.271Z,96131.91
2022-11-27T13:08:18.593Z,96129.47
2022-11-27T13:10:54.298Z,96125.19
2022-11-27T13:13:30.254Z,96114.66
2022-11-27T13:16:06.789Z,96105.53
2022-11-27T13:18:38.419Z,96107.66
2022-11-27T13:21:10.442Z,96097.97
2022-11-27T13:23:37.621Z,96103.38
2022-11-27T13:26:11.697Z,96099.31
2022-11-27T13:28:44.790Z,96102.28
2022-11-27T13:31:21.723Z,96097.94
2022-11-27T13:33:50.968Z,96099.56
2022-11-27T13:36:37.272Z,96095.78
2022-11-27T13:39:05.210Z,96104.41
2022-11-27T13:41:40.681Z,96102.75
2022-11-27T13:44:25.860Z,96101.66
2022-11-27T13:46:57.128Z,96098.69
2022-11-27T13:49:31.299Z,96097.84
2022-11-27T13:52:07.887Z,96097.03
2022-11-27T13:54:34.986Z,96096.19
2022-11-27T13:57:19.113Z,96087.03
2022-11-27T14:00:10.553Z,96089.94
2022-11-27T14:02:49.297Z,96091.56
2022-11-27T14:05:19.136Z,96081.59
2022-11-27T14:07:52.645Z,96098.25
2022-11-27T14:10:22.997Z,96089.09
2022-11-27T14:13:05.670Z,96081.53
2022-11-27T14:15:37.450Z,96081.00
2022-11-27T14:18:04.722Z,96069.19
2022-11-27T14:20:35.201Z,96081.00
2022-11-27T14:23:17.568Z,96082.06
2022-11-27T14:25:44.847Z,96085.81
2022-11-27T14:28:22.136Z,96098.16
2022-11-27T14:30:54.622Z,96088.47
2022-11-27T14:33:31.247Z,96094.63
2022-11-27T14:36:01.154Z,96095.19
2022-11-27T14:38:30.197Z,96093.06
2022-11-27T14:41:15.070Z,96079.06
2022-11-27T14:43:42.340Z,96074.22
2022-11-27T14:46:18.355Z,96071.78
2022-11-27T14:48:50.862Z,96080.94
2022-11-27T14:51:20.859Z,96067.47
2022-11-27T14:53:50.696Z,96060.78
2022-11-27T14:56:18.349Z,96058.34
2022-11-27T14:58:51.547Z,96052.44
2022-11-27T15:01:28.338Z,96058.84
2022-11-27T15:04:05.714Z,96055.13
2022-11-27T15:06:40.816Z,96054.53
2022-11-27T15:09:31.258Z,96055.06
2022-11-27T15:12:08.701Z,96064.16
2022-11-27T15:14:36.298Z,96058.78
2022-11-27T15:17:04.663Z,96062.75
2022-11-27T15:19:35.792Z,96059.50
2022-11-27T15:22:03.570Z,96046.31
2022-11-27T15:24:32.144Z,96047.34
2022-11-27T15:27:31.378Z,96050.53
2022-11-27T15:30:01.112Z,96043.53
2022-11-27T15:32:42.139Z,96038.13
2022-11-27T15:35:15.991Z,96041.88
2022-11-27T15:37:43.120Z,96032.19
2022-11-27T15:40:34.490Z,96025.72
2022-11-27T15:43:01.926Z,96016.84
2022-11-27T15:45:31.318Z,96009.31
2022-11-27T15:48:00.685Z,96003.38
2022-11-27T15:50:29.348Z,96003.91
2022-11-27T15:52:56.525Z,95994.25
2022-11-27T15:55:24.162Z,96003.06
2022-11-27T15:57:51.282Z,95995.53
2022-11-27T16:00:19.066Z,96002.75
2022-11-27T16:02:46.265Z,96003.84
2022-11-27T16:05:13.346Z,96004.91
2022-11-27T16:07:40.416Z,96004.09
2022-11-27T16:10:08.161Z,96000.63
2022-11-27T16:12:35.254Z,95997.09
2022-11-27T16:15:02.361Z,95986.34
2022-11-27T16:17:29.430Z,95987.19
2022-11-27T16:19:56.687Z,95983.69
2022-11-27T16:22:23.942Z,95982.34
2022-11-27T16:24:50.979Z,95971.84
2022-11-27T16:27:18.525Z,95972.91
2022-11-27T16:29:45.542Z,95962.69
2022-11-27T16:32:13.494Z,95964.25
2022-11-27T16:34:41.311Z,95961.84
2022-11-27T16:37:08.637Z,95963.16
2022-11-27T16:39:35.809Z,95968.00
2022-11-27T16:42:03.305Z,95963.69
2022-11-27T16:44:30.835Z,95952.94
2022-11-27T16:46:58.054Z,95958.31
2022-11-27T16:49:25.330Z,95942.75
2022-11-27T16:51:52.497Z,95947.06
2022-11-27T16:54:19.817Z,95935.28
2022-11-27T16:56:47.006Z,95936.63
2022-11-27T16:59:15.055Z,95926.69
2022-11-27T17:01:43.804Z,95928.31
2022-11-27T17:04:19.076Z,95929.38
2022-11-27T17:06:47.701Z,95918.38
2022-11-27T17:09:15.441Z,95909.50
2022-11-27T17:11:45.217Z,95903.09
2022-11-27T17:14:12.501Z,95893.41
2022-11-27T17:16:40.279Z,95880.00
2022-11-27T17:19:11.965Z,95871.13
2022-11-27T17:21:39.185Z,95867.38
2022-11-27T17:24:15.036Z,95873.00
2022-11-27T17:26:45.787Z,95884.31
2022-11-27T17:29:15.716Z,95877.84
2022-11-27T17:31:43.065Z,95881.34
2022-11-27T17:34:12.379Z,95874.66
2022-11-27T17:36:39.442Z,95870.09
2022-11-27T17:39:06.701Z,95870.91
2022-11-27T17:41:34.536Z,95869.00
2022-11-27T17:44:04.989Z,95877.06
2022-11-27T17:46:32.564Z,95872.53
2022-11-27T17:49:01.661Z,95868.22
2022-11-27T17:51:31.685Z,95858.31
2022-11-27T17:54:00.006Z,95853.50
2022-11-27T17:56:29.502Z,95849.72
2022-11-27T17:58:56.754Z,95846.25
2022-11-27T18:01:26.447Z,95842.75
2022-11-27T18:03:58.652Z,95841.13
2022-11-27T18:06:26.191Z,95837.13
2022-11-27T18:08:53.549Z,95830.13
2022-11-27T18:11:23.792Z,95819.91
2022-11-27T18:13:51.078Z,95823.16
2022-11-27T18:16:29.398Z,95822.59
2022-11-27T18:18:57.808Z,95822.06
2022-11-27T18:21:25.717Z,95814.28
2022-11-27T18:24:21.814Z,95811.84
2022-11-27T18:29:28.146Z,95806.47
2022-11-27T18:31:55.209Z,95806.47
2022-11-27T18:34:22.388Z,95808.06
2022-11-27T18:36:49.657Z,95800.53
2022-11-27T18:39:16.981Z,95791.69
2022-11-27T18:41:44.048Z,95800.00
2022-11-27T18:44:11.926Z,95795.16
2022-11-27T18:46:39.091Z,95786.31
2022-11-27T18:49:06.357Z,95774.78
2022-11-27T18:51:33.556Z,95784.69
2022-11-27T18:54:00.886Z,95781.19
2022-11-27T18:56:33.042Z,95782.00
2022-11-27T18:59:01.517Z,95778.53
2022-11-27T19:01:35.428Z,95774.25
2022-11-27T19:04:05.959Z,95781.19
2022-11-27T19:06:35.280Z,95776.94
2022-11-27T19:09:03.171Z,95786.56
2022-11-27T19:11:30.634Z,95777.97
2022-11-27T19:13:58.393Z,95773.66
2022-11-27T19:16:26.927Z,95773.13
2022-11-27T19:18:56.569Z,95769.41
2022-11-27T19:21:26.072Z,95757.03
2022-11-27T19:23:57.135Z,95762.41
2022-11-27T19:26:33.484Z,95760.78
2022-11-27T19:29:02.684Z,95753.56
2022-11-27T19:31:29.953Z,95757.28
2022-11-27T19:33:59.460Z,95754.88
2022-11-27T19:36:28.110Z,95753.00
2022-11-27T19:38:58.876Z,95749.22
2022-11-27T19:41:26.840Z,95743.88
2022-11-27T19:43:56.541Z,95739.56
2022-11-27T19:46:29.544Z,95748.66
2022-11-27T19:48:58.421Z,95748.41
2022-11-27T19:51:27.274Z,95742.50
2022-11-27T19:53:54.563Z,95745.72
2022-11-27T19:56:23.837Z,95739.56
2022-11-27T19:58:50.918Z,95730.44
2022-11-27T20:01:19.450Z,95732.28
2022-11-27T20:03:48.245Z,95725.88
2022-11-27T20:06:18.120Z,95721.28
2022-11-27T20:08:48.524Z,95717.81
2022-11-27T20:11:20.230Z,95710.28
2022-11-27T20:13:47.928Z,95719.41
2022-11-27T20:16:20.030Z,95711.63
2022-11-27T20:18:49.168Z,95705.19
2022-11-27T20:21:22.414Z,95703.31
2022-11-27T20:23:51.922Z,95699.03
2022-11-27T20:26:21.560Z,95685.34
2022-11-27T20:28:49.731Z,95675.41
2022-11-27T20:31:24.106Z,95674.63
2022-11-27T20:33:52.970Z,95662.78
2022-11-27T20:36:22.244Z,95667.09
2022-11-27T20:38:50.470Z,95666.56
2022-11-27T20:41:20.902Z,95671.66
2022-11-27T20:43:53.390Z,95656.63
2022-11-27T20:46:20.530Z,95661.72
2022-11-27T20:48:49.453Z,95652.06
2022-11-27T20:51:21.240Z,95661.72
2022-11-27T20:53:49.274Z,95653.41
2022-11-27T20:56:18.124Z,95649.38
2022-11-27T20:58:47.134Z,95642.94
2022-11-27T21:01:26.621Z,95634.91
2022-11-27T21:03:56.373Z,95630.06
2022-11-27T21:06:30.030Z,95626.59
2022-11-27T21:09:00.803Z,95630.06
2022-11-27T21:11:32.227Z,95625.25
2022-11-27T21:14:05.745Z,95618.81
2022-11-27T21:16:36.059Z,95615.84
2022-11-27T21:19:11.952Z,95606.75
2022-11-27T21:21:39.416Z,95607.03
2022-11-27T21:24:06.745Z,95598.97
2022-11-27T21:26:34.175Z,95592.53
2022-11-27T21:29:03.859Z,95586.06
2022-11-27T21:31:37.156Z,95579.91
2022-11-27T21:34:06.536Z,95576.16
2022-11-27T21:36:36.724Z,95581.53
2022-11-27T21:39:06.677Z,95571.88
2022-11-27T21:41:35.388Z,95566.22
2022-11-27T21:44:03.073Z,95556.81
2022-11-27T21:46:31.041Z,95555.75
2022-11-27T21:49:00.724Z,95563.03
2022-11-27T21:51:30.334Z,95558.44
2022-11-27T21:53:59.190Z,95556.28
2022-11-27T21:56:28.616Z,95553.88
2022-11-27T21:58:56.062Z,95557.13
2022-11-27T22:01:24.726Z,95557.13
2022-11-27T22:03:52.985Z,95560.34
2022-11-27T22:06:21.645Z,95550.66
2022-11-27T22:08:49.819Z,95549.31
2022-11-27T22:11:20.425Z,95552.81
2022-11-27T22:13:49.715Z,95553.59
2022-11-27T22:16:19.271Z,95552.53
2022-11-27T22:18:48.215Z,95552.28
2022-11-27T22:21:16.580Z,95538.84
2022-11-27T22:23:44.333Z,95534.84
2022-11-27T22:26:17.621Z,95542.06
2022-11-27T22:28:45.379Z,95538.56
2022-11-27T22:31:25.220Z,95524.63
2022-11-27T22:33:52.904Z,95524.09
2022-11-27T22:36:30.803Z,95521.94
2022-11-27T22:39:03.465Z,95529.19
2022-11-27T22:41:34.550Z,95528.94
2022-11-27T22:44:14.184Z,95536.19
2022-11-27T22:46:42.253Z,95536.72
2022-11-27T22:49:12.693Z,95536.97
2022-11-27T22:51:40.303Z,95531.63
2022-11-27T22:54:08.558Z,95526.53
2022-11-27T22:56:36.152Z,95514.72
2022-11-27T22:59:31.223Z,95515.50
2022-11-27T23:01:54.304Z,95512.81
2022-11-27T23:04:21.365Z,95503.72
2022-11-27T23:06:48.721Z,95499.41
2022-11-27T23:09:17.336Z,95492.97
2022-11-27T23:11:44.511Z,95482.47
2022-11-27T23:14:11.793Z,95486.00
2022-11-27T23:16:39.105Z,95487.31
2022-11-27T23:19:06.311Z,95484.91
2022-11-27T23:21:33.504Z,95484.91
2022-11-27T23:24:00.759Z,95483.28
2022-11-27T23:26:27.761Z,95482.50
2022-11-27T23:28:55.021Z,95480.59
2022-11-27T23:31:30.866Z,95480.88
2022-11-27T23:34:00.399Z,95477.13
2022-11-27T23:36:27.900Z,95479.00
2022-11-27T23:38:55.162Z,95475.50
2022-11-27T23:41:24.459Z,95472.03
2022-11-27T23:43:53.036Z,95472.81
2022-11-27T23:46:22.716Z,95469.34
2022-11-27T23:48:49.940Z,95462.09
2022-11-27T23:51:22.775Z,95472.03
2022-11-27T23:53:50.613Z,95458.34
2022-11-27T23:56:23.958Z,95456.44
2022-11-27T23:58:51.697Z,95459.69
